Time;durP1;ratioP1;P1;durP2;ratioP2;P2;SDS_P1;SDS_P2;PMS_P1;PMS_P2;Temp;Humidity;BMP_temperature;BMP_pressure;BME280_temperature;BME280_humidity;BME280_pressure;Samples;Min_cycle;Max_cycle;Signal;HPM_P1;HPM_P2
2024/02/04 00:01:29;;;;;;;3.70;1.60;;;12.00;99.90;;;;;;6203949;28;20061;-82
2024/02/04 00:04:32;;;;;;;3.20;1.33;;;12.00;99.90;;;;;;6226036;28;20088;-82
2024/02/04 00:07:34;;;;;;;3.75;1.52;;;12.00;99.90;;;;;;6204688;28;20103;-83
2024/02/04 00:10:36;;;;;;;3.20;1.13;;;11.90;99.90;;;;;;6228037;28;20050;-83
2024/02/04 00:13:37;;;;;;;5.28;1.27;;;12.00;99.90;;;;;;6209272;28;20085;-83
2024/02/04 00:16:39;;;;;;;3.20;1.30;;;12.00;99.90;;;;;;6227240;28;20048;-83
2024/02/04 00:19:41;;;;;;;4.28;1.20;;;12.00;99.90;;;;;;6203968;28;20054;-84
2024/02/04 00:22:43;;;;;;;3.38;1.40;;;12.00;99.90;;;;;;6227251;28;20148;-84
2024/02/04 00:25:45;;;;;;;4.45;1.20;;;11.90;99.90;;;;;;6221385;28;20064;-83
2024/02/04 00:28:46;;;;;;;3.80;1.23;;;12.00;99.90;;;;;;6214687;28;20053;-83
2024/02/04 00:31:48;;;;;;;4.00;1.30;;;11.90;99.90;;;;;;6226579;28;20057;-84
2024/02/04 00:34:50;;;;;;;2.88;1.20;;;11.90;99.90;;;;;;6203352;28;20752;-83
2024/02/04 00:37:52;;;;;;;3.42;1.10;;;11.90;99.90;;;;;;6227071;28;20053;-84
2024/02/04 00:40:54;;;;;;;3.10;1.30;;;11.90;99.90;;;;;;6205887;28;20410;-83
2024/02/04 00:43:56;;;;;;;2.80;1.30;;;11.90;99.90;;;;;;6217174;28;20057;-87
2024/02/04 00:46:57;;;;;;;3.22;1.33;;;11.90;99.90;;;;;;6230513;28;20060;-85
2024/02/04 00:49:59;;;;;;;3.17;1.38;;;11.90;99.90;;;;;;6223998;28;20069;-85
2024/02/04 00:53:01;;;;;;;2.78;1.10;;;11.90;99.90;;;;;;6209542;28;20052;-84
2024/02/04 00:56:02;;;;;;;2.58;1.10;;;11.90;99.90;;;;;;6244395;28;20053;-85
2024/02/04 00:59:04;;;;;;;3.05;1.10;;;11.90;99.90;;;;;;6214362;28;20096;-84
2024/02/04 01:02:06;;;;;;;3.17;1.20;;;11.90;99.90;;;;;;6227795;28;20049;-84
2024/02/04 01:05:08;;;;;;;3.40;1.20;;;11.90;99.90;;;;;;6202840;28;20058;-83
2024/02/04 01:08:09;;;;;;;3.53;1.33;;;11.90;99.90;;;;;;6226405;28;20186;-83
2024/02/04 01:11:11;;;;;;;2.55;0.95;;;11.90;99.90;;;;;;6215316;28;20049;-84
2024/02/04 01:14:13;;;;;;;3.95;1.17;;;11.90;99.90;;;;;;6215531;28;20057;-84
2024/02/04 01:17:15;;;;;;;4.00;0.93;;;11.90;99.90;;;;;;6204652;28;20077;-84
2024/02/04 01:20:16;;;;;;;2.50;1.00;;;11.80;99.90;;;;;;6228571;28;20053;-87
2024/02/04 01:23:18;;;;;;;3.30;1.05;;;11.80;99.90;;;;;;6205831;28;20046;-83
2024/02/04 01:26:20;;;;;;;3.20;1.15;;;11.80;99.90;;;;;;6227802;28;20429;-85
2024/02/04 01:29:22;;;;;;;2.20;1.00;;;11.80;99.90;;;;;;6215473;28;20057;-85
2024/02/04 01:32:23;;;;;;;5.43;1.50;;;11.70;99.90;;;;;;6245918;28;20057;-84
2024/02/04 01:35:25;;;;;;;4.93;1.50;;;11.80;99.90;;;;;;6203883;28;20058;-83
2024/02/04 01:38:26;;;;;;;5.15;1.70;;;11.70;99.90;;;;;;6226342;28;20057;-83
2024/02/04 01:41:28;;;;;;;2.90;1.30;;;11.70;99.90;;;;;;6236940;28;20806;-83
2024/02/04 01:44:30;;;;;;;3.22;1.20;;;11.70;99.90;;;;;;6228396;28;20065;-83
2024/02/04 01:47:31;;;;;;;3.03;1.08;;;11.70;99.90;;;;;;6219822;28;20065;-83
2024/02/04 01:50:33;;;;;;;3.30;1.27;;;11.70;99.90;;;;;;6219123;28;20417;-84
2024/02/04 01:53:35;;;;;;;2.85;1.10;;;11.70;99.90;;;;;;6202685;28;20050;-83
2024/02/04 01:56:36;;;;;;;2.20;0.95;;;11.70;99.90;;;;;;6226373;28;20061;-85
2024/02/04 01:59:38;;;;;;;2.72;1.40;;;11.80;99.90;;;;;;6226475;28;20493;-84
2024/02/04 02:02:40;;;;;;;4.57;1.50;;;11.80;99.90;;;;;;6203486;28;20065;-83
2024/02/04 02:05:41;;;;;;;3.50;1.42;;;11.80;99.90;;;;;;6226998;28;20512;-84
2024/02/04 02:08:43;;;;;;;3.03;1.23;;;11.70;99.90;;;;;;6203392;28;20053;-86
2024/02/04 02:11:45;;;;;;;3.47;1.30;;;11.70;99.90;;;;;;6226288;28;20086;-84
2024/02/04 02:14:46;;;;;;;3.88;1.25;;;11.70;99.90;;;;;;6202664;28;20505;-84
2024/02/04 02:17:49;;;;;;;3.17;1.50;;;11.70;99.90;;;;;;6246051;28;20052;-87
2024/02/04 02:20:51;;;;;;;3.10;1.30;;;11.70;99.90;;;;;;6238555;28;20056;-86
2024/02/04 02:23:53;;;;;;;2.85;1.27;;;11.70;99.90;;;;;;6204215;28;20061;-84
2024/02/04 02:26:57;;;;;;;3.65;1.30;;;11.60;99.90;;;;;;6230182;28;20050;-83
2024/02/04 02:29:58;;;;;;;3.97;1.48;;;11.70;99.90;;;;;;6206839;28;20050;-83
2024/02/04 02:33:00;;;;;;;4.05;1.40;;;11.60;99.90;;;;;;6225163;28;20185;-84
2024/02/04 02:36:02;;;;;;;2.88;1.30;;;11.60;99.90;;;;;;6230497;28;20184;-84
2024/02/04 02:39:05;;;;;;;3.65;1.30;;;11.70;99.90;;;;;;6207470;28;20108;-83
2024/02/04 02:42:07;;;;;;;3.70;1.30;;;11.70;99.90;;;;;;6247624;28;20046;-85
2024/02/04 02:45:08;;;;;;;3.30;1.45;;;11.70;99.90;;;;;;6215459;28;20123;-86
2024/02/04 02:48:10;;;;;;;3.20;1.20;;;11.70;99.90;;;;;;6226161;28;20061;-86
2024/02/04 02:51:12;;;;;;;2.58;1.10;;;11.70;99.90;;;;;;6227724;28;20420;-85
2024/02/04 02:54:14;;;;;;;3.85;1.40;;;11.70;99.90;;;;;;6208976;28;20072;-86
2024/02/04 02:57:15;;;;;;;2.83;1.05;;;11.60;99.90;;;;;;6237373;28;20061;-86
2024/02/04 03:00:17;;;;;;;2.90;1.20;;;11.60;99.90;;;;;;6246995;28;20053;-90
2024/02/04 03:03:19;;;;;;;2.10;0.90;;;11.50;99.90;;;;;;6208883;28;20057;-86
2024/02/04 03:06:20;;;;;;;1.92;0.90;;;11.50;99.90;;;;;;6231488;28;20049;-85
2024/02/04 03:09:22;;;;;;;3.13;1.00;;;11.40;99.90;;;;;;6209615;28;20930;-85
2024/02/04 03:12:24;;;;;;;2.80;1.00;;;11.40;99.90;;;;;;6249875;28;20060;-85
2024/02/04 03:15:26;;;;;;;2.92;1.00;;;11.50;99.90;;;;;;6206412;28;20062;-87
2024/02/04 03:18:27;;;;;;;2.63;0.80;;;11.40;99.90;;;;;;6246713;22;20553;-87
2024/02/04 03:21:29;;;;;;;1.80;0.80;;;11.50;99.90;;;;;;6258166;28;20124;-86
2024/02/04 03:24:31;;;;;;;2.35;0.85;;;11.50;99.90;;;;;;6272795;28;20060;-86
2024/02/04 03:27:33;;;;;;;2.40;1.00;;;11.50;99.90;;;;;;6250802;28;20046;-86
2024/02/04 03:30:35;;;;;;;3.83;0.93;;;11.50;99.90;;;;;;6262676;28;20053;-83
2024/02/04 03:33:36;;;;;;;4.35;1.05;;;11.50;99.90;;;;;;6223172;28;20440;-84
2024/02/04 03:36:38;;;;;;;3.22;1.00;;;11.50;99.90;;;;;;6269654;28;20439;-84
2024/02/04 03:39:40;;;;;;;2.75;1.00;;;11.50;99.90;;;;;;6248392;28;20045;-87
2024/02/04 03:42:42;;;;;;;3.00;1.00;;;11.40;99.90;;;;;;6267082;28;20053;-85
2024/02/04 03:45:44;;;;;;;2.53;1.00;;;11.50;99.90;;;;;;6251368;28;20083;-86
2024/02/04 03:48:45;;;;;;;2.35;0.93;;;11.40;99.90;;;;;;6234772;28;20207;-83
2024/02/04 03:51:47;;;;;;;1.90;0.80;;;11.40;99.90;;;;;;6271744;28;20407;-86
2024/02/04 03:54:49;;;;;;;1.60;0.60;;;11.40;99.90;;;;;;6247958;28;20053;-84
2024/02/04 03:57:51;;;;;;;1.90;0.80;;;11.40;99.90;;;;;;6270106;28;20052;-86
2024/02/04 04:00:52;;;;;;;2.08;0.75;;;11.30;99.90;;;;;;6248435;28;20053;-85
2024/02/04 04:03:54;;;;;;;1.90;0.70;;;11.30;99.90;;;;;;6226115;28;20049;-86
2024/02/04 04:06:56;;;;;;;1.90;0.70;;;11.30;99.90;;;;;;6264875;28;20062;-84
2024/02/04 04:09:58;;;;;;;2.28;0.70;;;11.30;99.90;;;;;;6271984;28;20057;-86
2024/02/04 04:13:00;;;;;;;3.65;1.40;;;11.40;99.90;;;;;;6250902;28;20052;-86
2024/02/04 04:16:01;;;;;;;2.53;0.80;;;11.40;99.90;;;;;;6270512;28;20705;-87
2024/02/04 04:19:03;;;;;;;2.25;0.70;;;11.50;99.90;;;;;;6240396;28;20084;-85
2024/02/04 04:22:05;;;;;;;1.77;0.60;;;11.50;99.90;;;;;;6241803;28;20192;-85
2024/02/04 04:25:07;;;;;;;2.40;0.70;;;11.50;99.90;;;;;;6246424;28;20403;-89
2024/02/04 04:28:09;;;;;;;1.77;0.60;;;11.50;99.90;;;;;;6260633;28;20553;-87
2024/02/04 04:31:10;;;;;;;1.95;0.65;;;11.60;99.90;;;;;;6270706;28;20140;-84
2024/02/04 04:34:13;;;;;;;2.42;0.70;;;11.60;99.90;;;;;;6247101;28;20064;-83
2024/02/04 04:37:15;;;;;;;1.45;0.60;;;11.50;99.90;;;;;;6263312;28;20132;-85
2024/02/04 04:40:16;;;;;;;1.70;0.70;;;11.60;99.90;;;;;;6272673;28;20507;-87
2024/02/04 04:43:18;;;;;;;2.28;0.60;;;11.60;99.90;;;;;;6251736;28;20049;-86
2024/02/04 04:46:20;;;;;;;2.45;0.80;;;11.60;99.90;;;;;;6269185;28;20053;-84
2024/02/04 04:49:21;;;;;;;2.25;0.70;;;11.60;99.90;;;;;;6271513;28;20533;-87
2024/02/04 04:52:23;;;;;;;2.63;0.73;;;11.60;99.90;;;;;;6246689;28;20045;-85
2024/02/04 04:55:25;;;;;;;2.72;0.70;;;11.40;99.90;;;;;;6271396;28;20049;-84
2024/02/04 04:58:26;;;;;;;1.33;0.60;;;11.40;99.90;;;;;;6250208;28;20056;-84
2024/02/04 05:01:28;;;;;;;2.47;0.50;;;11.40;99.90;;;;;;6271690;28;20049;-87
2024/02/04 05:04:30;;;;;;;1.17;0.50;;;11.40;99.90;;;;;;6246778;28;20417;-87
2024/02/04 05:07:32;;;;;;;1.45;0.60;;;11.40;99.90;;;;;;6258773;28;20420;-87
2024/02/04 05:10:34;;;;;;;1.70;0.60;;;11.40;99.90;;;;;;6270867;28;20060;-85
2024/02/04 05:13:35;;;;;;;1.77;0.50;;;11.50;99.90;;;;;;6252737;28;20495;-88
2024/02/04 05:16:37;;;;;;;1.75;0.52;;;11.50;99.90;;;;;;6245062;28;20049;-86
2024/02/04 05:19:39;;;;;;;2.38;0.63;;;11.50;99.90;;;;;;6270449;28;20064;-86
2024/02/04 05:22:41;;;;;;;1.65;0.60;;;11.50;99.90;;;;;;6246956;28;20076;-88
2024/02/04 05:25:42;;;;;;;1.58;0.60;;;11.50;99.90;;;;;;6271675;28;20542;-86
2024/02/04 05:28:44;;;;;;;2.13;0.50;;;11.60;99.90;;;;;;6252864;28;20053;-85
2024/02/04 05:31:46;;;;;;;1.65;0.50;;;11.50;99.90;;;;;;6246704;28;20480;-87
2024/02/04 05:34:47;;;;;;;1.02;0.40;;;11.60;99.90;;;;;;6271725;28;20060;-89
2024/02/04 05:37:49;;;;;;;1.60;0.50;;;11.60;99.90;;;;;;6247056;28;20061;-88
2024/02/04 05:40:51;;;;;;;2.10;0.50;;;11.60;99.90;;;;;;6271808;28;20492;-88
2024/02/04 05:43:52;;;;;;;0.80;0.40;;;11.60;99.90;;;;;;6256360;28;20068;-87
2024/02/04 05:46:54;;;;;;;1.45;0.40;;;11.70;99.90;;;;;;6246931;28;20072;-85
2024/02/04 05:49:56;;;;;;;1.45;0.45;;;11.60;99.90;;;;;;6269997;28;20053;-88
2024/02/04 05:52:58;;;;;;;2.00;0.50;;;11.70;99.90;;;;;;6246610;28;20061;-87
2024/02/04 05:55:59;;;;;;;2.40;0.60;;;11.70;99.90;;;;;;6269292;28;20053;-85
2024/02/04 05:59:01;;;;;;;1.92;0.50;;;11.70;99.90;;;;;;6256876;28;20049;-88
2024/02/04 06:02:03;;;;;;;2.35;0.60;;;11.70;99.90;;;;;;6258870;28;20053;-86
2024/02/04 06:05:05;;;;;;;1.83;0.60;;;11.70;99.90;;;;;;6276815;28;20061;-90
2024/02/04 06:08:07;;;;;;;1.13;0.40;;;11.70;99.90;;;;;;6252237;28;20057;-87
2024/02/04 06:11:09;;;;;;;2.13;0.60;;;11.70;99.90;;;;;;6274566;28;20064;-88
2024/02/04 06:14:10;;;;;;;1.85;0.60;;;11.60;99.90;;;;;;6263130;28;20053;-90
2024/02/04 06:17:12;;;;;;;2.05;0.60;;;11.70;99.90;;;;;;6257396;28;20115;-87
2024/02/04 06:20:14;;;;;;;2.17;0.50;;;11.60;99.90;;;;;;6251885;28;20053;-85
2024/02/04 06:23:15;;;;;;;1.67;0.50;;;11.60;99.90;;;;;;6280692;28;20045;-85
2024/02/04 06:26:17;;;;;;;2.60;0.60;;;11.50;99.90;;;;;;6251393;28;20046;-85
2024/02/04 06:29:19;;;;;;;1.10;0.40;;;11.40;99.90;;;;;;6263410;28;20525;-87
2024/02/04 06:32:21;;;;;;;1.33;0.63;;;11.50;99.90;;;;;;6252617;28;20046;-84
2024/02/04 06:35:22;;;;;;;1.80;0.50;;;11.50;99.90;;;;;;6291395;28;20424;-83
2024/02/04 06:38:24;;;;;;;1.77;0.82;;;11.40;99.90;;;;;;6273588;28;20075;-84
2024/02/04 06:41:26;;;;;;;1.30;0.50;;;11.50;99.90;;;;;;6292754;28;20093;-83
2024/02/04 06:44:27;;;;;;;1.20;0.40;;;11.50;99.90;;;;;;6285075;28;20037;-83
2024/02/04 06:47:29;;;;;;;1.88;0.50;;;11.50;99.90;;;;;;6265191;28;20485;-83
2024/02/04 06:50:31;;;;;;;1.70;0.40;;;11.50;99.90;;;;;;6276100;28;20053;-83
2024/02/04 06:53:33;;;;;;;1.38;0.40;;;11.50;99.90;;;;;;6249804;28;20060;-83
2024/02/04 06:56:34;;;;;;;2.60;0.50;;;11.60;99.90;;;;;;6267586;28;20053;-85
2024/02/04 06:59:36;;;;;;;1.63;0.55;;;11.50;99.90;;;;;;6274315;28;20547;-83
2024/02/04 07:02:38;;;;;;;1.38;0.60;;;11.50;99.90;;;;;;6250113;28;20408;-86
2024/02/04 07:05:39;;;;;;;1.15;0.50;;;11.60;99.90;;;;;;6271524;28;20052;-88
2024/02/04 07:08:41;;;;;;;1.55;0.55;;;11.60;99.90;;;;;;6273762;28;20057;-86
2024/02/04 07:11:43;;;;;;;1.65;0.47;;;11.60;99.90;;;;;;6250424;28;20057;-85
2024/02/04 07:14:44;;;;;;;1.73;0.50;;;11.70;99.90;;;;;;6270564;28;20053;-84
2024/02/04 07:17:46;;;;;;;2.28;0.50;;;11.70;99.90;;;;;;6258299;28;20067;-86
2024/02/04 07:20:48;;;;;;;1.67;0.50;;;11.70;99.90;;;;;;6249104;28;20102;-86
2024/02/04 07:23:49;;;;;;;1.90;0.50;;;11.70;99.90;;;;;;6273604;28;20055;-86
2024/02/04 07:26:51;;;;;;;2.22;0.70;;;11.70;99.90;;;;;;6249158;28;20049;-85
2024/02/04 07:29:54;;;;;;;1.73;0.50;;;11.70;99.90;;;;;;6258003;28;20051;-87
2024/02/04 07:32:56;;;;;;;1.75;0.50;;;11.70;99.90;;;;;;6272203;28;20060;-87
2024/02/04 07:35:58;;;;;;;2.30;0.60;;;11.80;99.90;;;;;;6249496;28;20091;-86
2024/02/04 07:38:59;;;;;;;1.55;0.50;;;11.70;99.90;;;;;;6272739;28;20045;-88
2024/02/04 07:42:02;;;;;;;1.55;0.60;;;11.80;99.90;;;;;;6247130;28;20046;-87
2024/02/04 07:45:08;;;;;;;1.67;0.52;;;11.80;99.90;;;;;;6246288;28;20065;-87
2024/02/04 07:48:11;;;;;;;2.78;0.68;;;11.80;99.90;;;;;;6227399;28;20501;-88
2024/02/04 07:51:13;;;;;;;1.60;0.40;;;11.90;99.90;;;;;;6270406;28;20049;-88
2024/02/04 07:54:15;;;;;;;1.90;0.50;;;11.90;99.90;;;;;;6247153;28;20108;-88
2024/02/04 07:57:16;;;;;;;1.85;0.57;;;11.80;99.90;;;;;;6268924;28;20385;-90
2024/02/04 08:00:18;;;;;;;0.98;0.43;;;11.80;99.90;;;;;;6268149;28;20087;-87
2024/02/04 08:03:20;;;;;;;1.92;0.55;;;11.80;99.90;;;;;;6246845;28;20056;-87
2024/02/04 08:06:22;;;;;;;2.28;0.60;;;11.90;99.90;;;;;;6259157;28;20056;-88
2024/02/04 08:09:23;;;;;;;2.65;0.60;;;11.90;99.90;;;;;;6270262;28;20500;-87
2024/02/04 08:12:28;;;;;;;2.55;0.60;;;11.90;99.90;;;;;;6247102;28;20064;-88
2024/02/04 08:15:30;;;;;;;3.15;0.98;;;11.90;99.90;;;;;;6249047;28;20053;-85
2024/02/04 08:18:32;;;;;;;2.00;0.80;;;12.00;99.90;;;;;;6258949;28;20065;-86
2024/02/04 08:21:34;;;;;;;1.30;0.50;;;11.90;99.90;;;;;;6220202;28;20061;-85
2024/02/04 08:24:36;;;;;;;3.58;0.68;;;11.90;99.90;;;;;;6251191;28;20496;-86
2024/02/04 08:27:39;;;;;;;3.45;0.90;;;11.80;99.90;;;;;;6247795;28;20172;-86
2024/02/04 08:30:41;;;;;;;3.47;1.00;;;11.70;99.90;;;;;;6252699;28;20412;-86
2024/02/04 08:33:42;;;;;;;3.58;0.73;;;11.70;99.90;;;;;;6237547;28;20053;-87
2024/02/04 08:36:44;;;;;;;2.22;0.80;;;11.70;99.90;;;;;;6255548;28;20478;-87
2024/02/04 08:39:46;;;;;;;2.33;0.65;;;11.70;99.90;;;;;;6271354;28;20061;-84
2024/02/04 08:42:48;;;;;;;2.38;0.77;;;11.80;99.90;;;;;;6251657;28;20048;-85
2024/02/04 08:45:50;;;;;;;3.22;0.70;;;11.80;99.90;;;;;;6241599;28;20054;-85
2024/02/04 08:48:52;;;;;;;2.25;0.65;;;11.90;99.90;;;;;;6270063;28;20084;-86
2024/02/04 08:51:54;;;;;;;1.95;0.65;;;11.90;99.90;;;;;;6245920;28;20068;-85
2024/02/04 08:54:56;;;;;;;3.17;0.90;;;12.00;99.90;;;;;;6254505;28;20494;-90
2024/02/04 08:57:59;;;;;;;2.92;0.85;;;12.00;99.90;;;;;;6246038;28;20059;-89
2024/02/04 09:01:02;;;;;;;2.75;0.70;;;12.00;99.90;;;;;;6256334;28;20049;-87
2024/02/04 09:04:03;;;;;;;3.80;0.70;;;12.00;99.90;;;;;;6268576;28;20052;-83
2024/02/04 09:07:05;;;;;;;3.15;0.88;;;12.10;99.90;;;;;;6247240;28;20120;-89
2024/02/04 09:10:07;;;;;;;2.92;0.80;;;12.10;99.90;;;;;;6249580;28;20061;-89
2024/02/04 09:13:09;;;;;;;2.67;0.90;;;12.10;99.90;;;;;;6262913;28;20049;-87
2024/02/04 09:16:11;;;;;;;2.22;0.77;;;12.10;99.90;;;;;;6244580;28;20412;-91
2024/02/04 09:19:13;;;;;;;2.92;1.00;;;12.20;99.90;;;;;;6239042;28;20068;-90
2024/02/04 09:22:15;;;;;;;2.47;0.73;;;12.20;99.90;;;;;;6263690;28;20102;-91
2024/02/04 09:25:17;;;;;;;3.42;0.98;;;12.30;99.90;;;;;;6269769;28;20052;-92
2024/02/04 09:28:20;;;;;;;3.60;0.95;;;12.30;99.90;;;;;;6266725;28;20045;-94
2024/02/04 09:31:28;;;;;;;2.22;0.80;;;12.30;99.90;;;;;;6271255;28;20051;-86
2024/02/04 09:34:31;;;;;;;3.75;1.17;;;12.30;99.90;;;;;;6247336;28;20053;-85
2024/02/04 09:37:33;;;;;;;2.22;0.90;;;12.30;99.90;;;;;;6252357;28;20053;-90
2024/02/04 09:40:35;;;;;;;3.55;1.10;;;12.30;99.90;;;;;;6253621;28;20408;-89
2024/02/04 09:43:37;;;;;;;3.13;0.95;;;12.40;99.90;;;;;;6259668;28;20053;-89
2024/02/04 09:46:40;;;;;;;3.33;0.93;;;12.40;99.90;;;;;;6269905;28;20073;-89
2024/02/04 09:49:42;;;;;;;3.00;1.05;;;12.50;99.90;;;;;;6268256;28;20053;-91
2024/02/04 09:52:44;;;;;;;3.72;1.00;;;12.50;99.90;;;;;;6268496;28;20127;-90
2024/02/04 09:55:46;;;;;;;2.40;0.65;;;12.50;99.90;;;;;;6253634;28;20480;-89
2024/02/04 09:58:48;;;;;;;3.55;1.00;;;12.60;99.90;;;;;;6262042;28;20072;-86
2024/02/04 10:01:50;;;;;;;3.25;0.90;;;12.60;99.90;;;;;;6250276;28;20099;-88
2024/02/04 10:04:52;;;;;;;4.80;0.90;;;12.60;99.90;;;;;;6248986;28;20431;-86
2024/02/04 10:07:54;;;;;;;3.30;1.00;;;12.70;99.90;;;;;;6264300;28;20065;-88
2024/02/04 10:10:57;;;;;;;2.30;0.85;;;12.70;99.90;;;;;;6253207;28;20057;-88
2024/02/04 10:13:59;;;;;;;3.13;0.77;;;12.80;99.90;;;;;;6261668;28;20080;-87
2024/02/04 10:17:02;;;;;;;3.60;0.80;;;12.90;99.90;;;;;;6254087;28;20053;-89
2024/02/04 10:20:03;;;;;;;2.63;0.80;;;13.00;99.90;;;;;;6253638;28;20069;-85
2024/02/04 10:23:05;;;;;;;2.85;0.80;;;13.00;99.90;;;;;;6258526;28;20059;-88
2024/02/04 10:26:07;;;;;;;2.70;0.80;;;13.00;99.90;;;;;;6247938;28;20053;-86
2024/02/04 10:29:09;;;;;;;4.30;0.60;;;13.00;99.90;;;;;;6267515;28;20048;-85
2024/02/04 10:32:10;;;;;;;2.45;0.60;;;13.10;99.90;;;;;;6265388;28;20065;-86
2024/02/04 10:35:12;;;;;;;1.80;0.60;;;13.20;99.90;;;;;;6254445;28;20061;-84
2024/02/04 10:38:14;;;;;;;2.60;0.73;;;13.30;99.90;;;;;;6262565;28;20447;-88
2024/02/04 10:41:16;;;;;;;2.10;0.60;;;13.40;99.90;;;;;;6252614;28;20060;-85
2024/02/04 10:44:18;;;;;;;3.40;0.60;;;13.50;99.90;;;;;;6253813;28;20195;-87
2024/02/04 10:47:20;;;;;;;1.52;0.68;;;13.70;99.90;;;;;;6250646;28;20045;-85
2024/02/04 10:50:21;;;;;;;2.85;0.60;;;13.70;99.90;;;;;;6258925;28;20057;-84
2024/02/04 10:53:23;;;;;;;2.63;0.50;;;14.00;99.90;;;;;;6245960;28;20056;-84
2024/02/04 10:56:25;;;;;;;1.75;0.65;;;14.30;99.90;;;;;;6246646;28;20098;-85
2024/02/04 10:59:29;;;;;;;1.45;0.60;;;14.40;99.90;;;;;;6255408;28;20081;-85
2024/02/04 11:02:31;;;;;;;1.35;0.50;;;14.50;99.90;;;;;;6261734;28;20053;-92
2024/02/04 11:05:34;;;;;;;2.92;0.60;;;14.60;99.90;;;;;;6272734;28;20049;-87
2024/02/04 11:08:36;;;;;;;1.92;0.52;;;14.70;99.90;;;;;;6261390;28;20053;-85
2024/02/04 11:11:38;;;;;;;1.40;0.50;;;14.80;99.90;;;;;;6251069;28;20512;-86
2024/02/04 11:14:40;;;;;;;2.13;0.90;;;15.00;99.90;;;;;;6258158;28;20041;-84
2024/02/04 11:17:42;;;;;;;1.08;0.50;;;15.00;99.70;;;;;;6270647;28;20061;-85
2024/02/04 11:20:44;;;;;;;3.28;0.70;;;15.00;99.00;;;;;;6260326;28;20061;-86
2024/02/04 11:23:45;;;;;;;3.80;0.80;;;15.00;98.80;;;;;;6270515;28;20056;-87
2024/02/04 11:26:47;;;;;;;1.60;0.60;;;15.00;96.10;;;;;;6247785;28;20524;-85
2024/02/04 11:29:49;;;;;;;1.83;0.70;;;14.90;99.70;;;;;;6260687;28;20049;-86
2024/02/04 11:32:51;;;;;;;2.65;0.70;;;14.70;99.70;;;;;;6267813;28;20049;-86
2024/02/04 11:35:53;;;;;;;1.83;0.47;;;14.80;98.40;;;;;;6256943;28;20068;-88
2024/02/04 11:38:56;;;;;;;5.88;0.70;;;14.70;97.90;;;;;;6256469;28;20583;-89
2024/02/04 11:41:57;;;;;;;1.15;0.50;;;14.60;98.60;;;;;;6255521;28;20136;-88
2024/02/04 11:44:59;;;;;;;3.17;0.60;;;14.50;99.90;;;;;;6253118;28;20140;-83
2024/02/04 11:48:01;;;;;;;2.40;0.60;;;14.70;99.60;;;;;;6264948;28;20084;-87
2024/02/04 11:51:03;;;;;;;2.60;0.63;;;14.80;98.40;;;;;;6248672;28;20085;-84
2024/02/04 11:54:07;;;;;;;2.42;0.60;;;14.80;97.30;;;;;;6272599;28;20053;-86
2024/02/04 11:57:08;;;;;;;1.00;0.50;;;14.90;96.00;;;;;;6246162;28;20095;-87
2024/02/04 12:00:10;;;;;;;3.05;0.70;;;14.90;97.00;;;;;;6270971;28;20436;-88
2024/02/04 12:03:12;;;;;;;1.75;0.68;;;14.90;98.20;;;;;;6246833;28;20061;-88
2024/02/04 12:06:16;;;;;;;2.97;0.75;;;14.90;97.20;;;;;;6270038;28;20060;-86
2024/02/04 12:09:18;;;;;;;1.48;0.50;;;14.80;96.70;;;;;;6247549;28;20485;-88
2024/02/04 12:12:20;;;;;;;3.85;0.80;;;14.80;97.20;;;;;;6271744;28;20045;-86
2024/02/04 12:15:21;;;;;;;1.58;0.60;;;14.60;96.90;;;;;;6242696;28;20061;-87
2024/02/04 12:18:23;;;;;;;2.28;0.70;;;14.70;99.40;;;;;;6264718;28;20072;-87
2024/02/04 12:21:25;;;;;;;3.08;0.77;;;14.50;98.70;;;;;;6247202;28;20472;-86
2024/02/04 12:24:27;;;;;;;2.17;0.70;;;14.50;99.40;;;;;;6276356;28;20146;-89
2024/02/04 12:27:29;;;;;;;1.40;0.68;;;14.40;99.20;;;;;;6248422;28;20042;-89
2024/02/04 12:30:31;;;;;;;3.17;0.60;;;14.40;99.90;;;;;;6252102;28;20061;-89
2024/02/04 12:33:33;;;;;;;2.80;0.65;;;14.30;99.90;;;;;;6228656;28;20050;-89
2024/02/04 12:36:35;;;;;;;1.70;0.60;;;14.40;99.90;;;;;;6280614;28;20071;-91
2024/02/04 12:39:37;;;;;;;3.05;0.60;;;14.30;99.90;;;;;;6251444;28;20148;-88
2024/02/04 12:42:39;;;;;;;1.88;0.60;;;14.40;99.90;;;;;;6271134;28;20122;-84
2024/02/04 12:45:41;;;;;;;2.45;0.70;;;14.40;99.90;;;;;;6243534;28;20231;-85
2024/02/04 12:48:42;;;;;;;2.13;0.60;;;14.50;99.90;;;;;;6234544;28;20052;-87
2024/02/04 12:51:44;;;;;;;2.05;0.52;;;14.60;99.90;;;;;;6244049;28;20388;-84
2024/02/04 12:54:46;;;;;;;2.28;0.60;;;14.40;99.90;;;;;;6267879;28;20060;-83
2024/02/04 12:57:48;;;;;;;3.58;0.73;;;14.40;99.90;;;;;;6247603;28;20049;-86
2024/02/04 13:00:50;;;;;;;1.98;0.60;;;14.50;99.90;;;;;;6267719;28;20057;-87
2024/02/04 13:03:52;;;;;;;2.97;0.50;;;14.50;99.90;;;;;;6218874;28;20129;-82
2024/02/04 13:06:54;;;;;;;1.70;0.65;;;14.50;99.90;;;;;;6266088;28;20518;-81
2024/02/04 13:09:55;;;;;;;1.40;0.60;;;14.50;99.90;;;;;;6242400;28;20194;-81
2024/02/04 13:12:57;;;;;;;1.35;0.57;;;14.40;99.90;;;;;;6259500;28;20045;-85
2024/02/04 13:16:00;;;;;;;2.13;0.73;;;14.40;99.90;;;;;;6242015;28;20056;-82
2024/02/04 13:19:01;;;;;;;1.88;0.65;;;14.40;99.90;;;;;;6239734;28;20111;-83
2024/02/04 13:22:03;;;;;;;3.40;0.90;;;14.60;99.90;;;;;;6240116;28;20080;-83
2024/02/04 13:25:06;;;;;;;2.50;0.60;;;14.70;99.90;;;;;;6260800;28;20413;-85
2024/02/04 13:28:08;;;;;;;2.20;0.60;;;14.70;99.90;;;;;;6246811;28;20053;-86
2024/02/04 13:31:12;;;;;;;1.73;0.60;;;14.60;99.90;;;;;;6246247;28;20052;-85
2024/02/04 13:34:14;;;;;;;1.95;0.60;;;14.70;99.90;;;;;;6254912;28;20065;-83
2024/02/04 13:37:20;;;;;;;3.33;0.90;;;14.70;99.90;;;;;;6239702;28;20129;-84
2024/02/04 13:40:24;;;;;;;1.83;0.60;;;14.70;99.90;;;;;;6261414;28;20052;-83
2024/02/04 13:43:26;;;;;;;2.08;0.60;;;14.80;99.90;;;;;;6253363;28;20053;-82
2024/02/04 13:46:28;;;;;;;2.85;0.60;;;14.70;99.90;;;;;;6266057;28;20063;-82
2024/02/04 13:49:30;;;;;;;2.25;0.70;;;14.70;99.90;;;;;;6243245;28;20775;-82
2024/02/04 13:52:31;;;;;;;2.60;0.80;;;14.90;99.90;;;;;;6266659;28;20140;-82
2024/02/04 13:55:33;;;;;;;2.60;0.68;;;15.10;99.90;;;;;;6242195;28;20473;-82
2024/02/04 13:58:35;;;;;;;4.88;0.82;;;15.20;99.40;;;;;;6252316;28;20067;-83
2024/02/04 14:01:37;;;;;;;4.53;0.60;;;15.20;97.40;;;;;;6243114;28;20066;-84
2024/02/04 14:04:39;;;;;;;1.98;0.63;;;15.00;98.50;;;;;;6252518;28;20401;-82
2024/02/04 14:07:41;;;;;;;1.65;0.60;;;14.90;99.10;;;;;;6245077;28;20084;-82
2024/02/04 14:10:42;;;;;;;2.65;0.73;;;14.80;99.90;;;;;;6261176;28;20414;-86
2024/02/04 14:13:44;;;;;;;4.07;0.93;;;14.70;99.90;;;;;;6255721;28;20429;-83
2024/02/04 14:16:46;;;;;;;3.33;0.80;;;14.60;99.90;;;;;;6265355;28;20056;-82
2024/02/04 14:19:51;;;;;;;3.00;0.80;;;14.50;99.90;;;;;;6241637;28;20064;-82
2024/02/04 14:22:56;;;;;;;3.70;0.82;;;14.50;99.90;;;;;;6222968;28;20501;-83
2024/02/04 14:25:58;;;;;;;2.75;0.90;;;14.50;99.90;;;;;;6270188;28;20053;-83
2024/02/04 14:28:59;;;;;;;3.45;0.70;;;14.40;99.90;;;;;;6258498;28;20053;-84
2024/02/04 14:32:01;;;;;;;2.58;0.90;;;14.40;99.90;;;;;;6245824;28;20061;-82
2024/02/04 14:35:04;;;;;;;2.15;0.98;;;14.30;99.90;;;;;;6263084;28;20049;-82
2024/02/04 14:38:06;;;;;;;2.92;0.80;;;14.30;99.90;;;;;;6269578;28;20186;-80
2024/02/04 14:41:09;;;;;;;3.28;0.90;;;14.30;99.90;;;;;;6245357;28;20045;-82
2024/02/04 14:44:11;;;;;;;3.17;0.88;;;14.30;99.90;;;;;;6259915;28;20446;-80
2024/02/04 14:47:13;;;;;;;5.47;1.08;;;14.20;99.90;;;;;;6245311;28;20099;-79
2024/02/04 14:50:16;;;;;;;3.88;0.88;;;14.10;99.90;;;;;;6257761;28;20049;-82
2024/02/04 14:53:18;;;;;;;11.85;1.42;;;14.00;99.90;;;;;;6246336;28;20420;-81
2024/02/04 14:56:19;;;;;;;2.90;0.82;;;14.00;99.90;;;;;;6270766;28;20045;-83
2024/02/04 14:59:21;;;;;;;3.10;0.80;;;13.90;99.90;;;;;;6260920;28;20053;-84
2024/02/04 15:02:24;;;;;;;3.55;0.90;;;13.90;99.90;;;;;;6245079;28;20428;-83
2024/02/04 15:05:25;;;;;;;3.03;0.80;;;13.80;99.90;;;;;;6252747;28;20053;-82
2024/02/04 15:08:27;;;;;;;3.05;0.85;;;13.70;99.90;;;;;;6245232;28;20064;-81
2024/02/04 15:11:29;;;;;;;1.60;0.70;;;13.70;99.90;;;;;;6268423;28;20055;-81
2024/02/04 15:14:31;;;;;;;3.17;0.90;;;13.50;99.90;;;;;;6251843;28;20060;-81
2024/02/04 15:17:32;;;;;;;3.53;0.82;;;13.50;99.90;;;;;;6264596;28;20048;-84
2024/02/04 15:20:34;;;;;;;3.10;0.80;;;13.40;99.90;;;;;;6244057;28;20467;-82
2024/02/04 15:23:38;;;;;;;4.55;1.08;;;13.50;99.90;;;;;;6254593;28;20076;-81
2024/02/04 15:26:42;;;;;;;2.22;0.80;;;13.50;99.90;;;;;;6244633;28;20060;-81
2024/02/04 15:29:44;;;;;;;2.08;0.80;;;13.60;99.90;;;;;;6246900;28;20050;-85
2024/02/04 15:32:46;;;;;;;3.22;0.90;;;13.60;99.90;;;;;;6256204;28;20064;-81
2024/02/04 15:35:48;;;;;;;3.90;0.80;;;13.60;99.90;;;;;;6256389;28;20049;-83
2024/02/04 15:38:50;;;;;;;4.28;0.98;;;13.50;99.90;;;;;;6257737;28;20050;-83
2024/02/04 15:41:51;;;;;;;3.63;0.90;;;13.50;99.90;;;;;;6250331;28;20049;-84
2024/02/04 15:44:53;;;;;;;3.38;0.93;;;13.50;99.90;;;;;;6246986;28;20057;-83
2024/02/04 15:47:56;;;;;;;3.95;1.08;;;13.50;99.90;;;;;;6256032;28;20060;-82